Time;durP1;ratioP1;P1;durP2;ratioP2;P2;SDS_P1;SDS_P2;PMS_P1;PMS_P2;Temp;Humidity;BMP_temperature;BMP_pressure;BME280_temperature;BME280_humidity;BME280_pressure;Samples;Min_cycle;Max_cycle;Signal;HPM_P1;HPM_P2
2022/07/06 00:01:24;;;;;;;4.37;1.97;;;15.40;99.90;;;;;;4933554;29;20319;-60
2022/07/06 00:03:52;;;;;;;4.73;1.60;;;15.50;99.90;;;;;;4936490;29;20238;-59
2022/07/06 00:06:23;;;;;;;3.30;1.43;;;15.40;99.90;;;;;;4930853;29;20326;-56
2022/07/06 00:08:52;;;;;;;2.50;1.50;;;15.40;99.90;;;;;;4933291;29;20258;-59
2022/07/06 00:11:21;;;;;;;3.33;1.57;;;15.50;99.90;;;;;;4934252;29;20239;-59
2022/07/06 00:13:49;;;;;;;4.27;1.37;;;15.50;99.90;;;;;;4932659;29;20630;-57
2022/07/06 00:16:18;;;;;;;2.97;1.40;;;15.50;99.90;;;;;;4931048;29;20252;-60
2022/07/06 00:18:46;;;;;;;4.90;1.37;;;15.50;99.90;;;;;;4936804;29;20239;-60
2022/07/06 00:21:14;;;;;;;3.77;1.40;;;15.50;99.90;;;;;;4936000;29;20265;-60
2022/07/06 00:23:43;;;;;;;4.03;1.70;;;15.50;99.90;;;;;;4935979;29;20231;-60
2022/07/06 00:26:12;;;;;;;5.67;1.90;;;15.50;99.90;;;;;;4929309;29;20326;-58
2022/07/06 00:28:40;;;;;;;3.37;1.37;;;15.40;99.90;;;;;;4935197;29;20231;-59
2022/07/06 00:31:09;;;;;;;4.00;1.30;;;15.40;99.90;;;;;;4920368;29;20738;-57
2022/07/06 00:33:37;;;;;;;2.77;1.33;;;15.40;99.90;;;;;;4936635;29;20299;-59
2022/07/06 00:36:06;;;;;;;4.17;1.33;;;15.40;99.90;;;;;;4932800;29;20898;-58
2022/07/06 00:38:34;;;;;;;5.77;1.60;;;15.50;99.90;;;;;;4939242;29;20236;-60
2022/07/06 00:41:04;;;;;;;4.10;1.70;;;15.50;99.90;;;;;;4922044;29;20242;-58
2022/07/06 00:46:31;;;;;;;3.00;1.40;;;15.50;99.90;;;;;;5098789;27;20706;-59
2022/07/06 00:48:59;;;;;;;5.07;1.50;;;15.50;99.90;;;;;;5102454;28;20231;-59
2022/07/06 00:51:30;;;;;;;3.80;1.43;;;15.50;99.90;;;;;;5101978;28;20230;-57
2022/07/06 00:54:01;;;;;;;3.73;1.33;;;15.50;99.90;;;;;;5102850;28;20747;-58
2022/07/06 00:56:32;;;;;;;3.90;1.60;;;15.50;99.90;;;;;;5099620;28;20233;-58
2022/07/06 00:59:01;;;;;;;3.10;1.40;;;15.50;99.90;;;;;;5102038;28;20284;-59
2022/07/06 01:01:31;;;;;;;4.53;1.40;;;15.50;99.90;;;;;;5091546;28;20621;-59
2022/07/06 01:03:59;;;;;;;4.17;1.60;;;15.50;99.90;;;;;;5082810;28;20304;-59
2022/07/06 01:06:27;;;;;;;5.23;1.40;;;15.50;99.90;;;;;;5077822;28;20718;-59
2022/07/06 01:08:56;;;;;;;3.47;1.50;;;15.50;99.90;;;;;;5081499;28;20273;-59
2022/07/06 01:11:24;;;;;;;4.00;1.33;;;15.50;99.90;;;;;;5080946;28;20227;-58
2022/07/06 01:13:55;;;;;;;3.43;1.40;;;15.50;99.90;;;;;;5082885;28;20276;-60
2022/07/06 01:16:24;;;;;;;3.30;1.43;;;15.50;99.90;;;;;;5079571;28;20310;-59
2022/07/06 01:18:53;;;;;;;4.90;1.60;;;15.50;99.90;;;;;;5080365;28;20222;-57
2022/07/06 01:21:23;;;;;;;3.07;1.50;;;15.50;99.90;;;;;;5082642;28;20215;-58
2022/07/06 01:23:51;;;;;;;3.13;1.40;;;15.50;99.90;;;;;;5083390;28;20245;-60
2022/07/06 01:26:21;;;;;;;3.90;1.33;;;15.50;99.90;;;;;;5078937;28;20235;-57
2022/07/06 01:28:51;;;;;;;3.07;1.30;;;15.50;99.90;;;;;;5081740;28;20234;-58
2022/07/06 01:31:21;;;;;;;6.27;1.73;;;15.50;99.90;;;;;;5082342;28;20744;-60
2022/07/06 01:33:52;;;;;;;4.57;1.57;;;15.50;99.90;;;;;;5081864;28;20234;-58
2022/07/06 01:36:23;;;;;;;4.43;1.60;;;15.50;99.90;;;;;;5107280;27;20230;-57
2022/07/06 01:38:53;;;;;;;4.03;1.60;;;15.50;99.90;;;;;;5081332;28;20227;-59
2022/07/06 01:41:22;;;;;;;3.93;1.60;;;15.40;99.90;;;;;;5077522;28;20251;-59
2022/07/06 01:43:50;;;;;;;8.30;1.70;;;15.50;99.90;;;;;;5061118;28;20314;-59
2022/07/06 01:46:19;;;;;;;3.87;1.60;;;15.40;99.90;;;;;;5055499;28;20691;-59
2022/07/06 01:48:47;;;;;;;3.00;1.63;;;15.40;99.90;;;;;;5058506;28;20231;-58
2022/07/06 01:51:16;;;;;;;3.77;1.70;;;15.40;99.90;;;;;;5060301;28;20224;-59
2022/07/06 01:53:47;;;;;;;4.97;1.70;;;15.40;99.90;;;;;;5059744;28;20219;-60
2022/07/06 01:56:19;;;;;;;4.77;1.47;;;15.40;99.90;;;;;;5050022;28;20231;-58
2022/07/06 01:58:51;;;;;;;4.77;1.73;;;15.30;99.90;;;;;;5047385;28;20588;-59
2022/07/06 02:01:21;;;;;;;4.97;1.50;;;15.30;99.90;;;;;;5044640;28;20228;-59
2022/07/06 02:03:49;;;;;;;3.73;1.53;;;15.30;99.90;;;;;;5048055;28;20234;-59
2022/07/06 02:06:17;;;;;;;4.00;1.50;;;15.30;99.90;;;;;;5043878;28;20232;-59
2022/07/06 02:08:51;;;;;;;4.00;1.60;;;15.30;99.90;;;;;;5046363;28;21114;-58
2022/07/06 02:11:19;;;;;;;3.83;1.73;;;15.30;99.90;;;;;;5047996;28;20231;-59
2022/07/06 02:13:47;;;;;;;4.27;1.80;;;15.30;99.90;;;;;;5045724;28;20780;-58
2022/07/06 02:16:16;;;;;;;5.10;1.60;;;15.30;99.90;;;;;;5041320;28;20254;-59
2022/07/06 02:18:45;;;;;;;5.27;1.60;;;15.30;99.90;;;;;;5062550;28;20223;-59
2022/07/06 02:21:13;;;;;;;5.27;1.70;;;15.30;99.90;;;;;;5046478;28;20224;-60
2022/07/06 02:23:41;;;;;;;4.07;1.97;;;15.30;99.90;;;;;;5047573;28;20600;-61
2022/07/06 02:26:11;;;;;;;4.80;1.30;;;15.30;99.90;;;;;;5058553;28;20246;-57
2022/07/06 02:28:39;;;;;;;2.63;1.60;;;15.30;99.90;;;;;;5044494;28;20224;-58
2022/07/06 02:31:07;;;;;;;7.17;1.70;;;15.40;99.90;;;;;;5044545;28;20251;-59
2022/07/06 02:33:36;;;;;;;2.63;1.53;;;15.30;99.90;;;;;;5045249;28;20574;-56
2022/07/06 02:36:04;;;;;;;3.90;1.87;;;15.40;99.90;;;;;;5041490;28;20227;-59
2022/07/06 02:38:32;;;;;;;4.50;1.50;;;15.30;99.90;;;;;;5045312;28;20259;-59
2022/07/06 02:41:01;;;;;;;5.03;1.80;;;15.30;99.90;;;;;;5046968;28;20239;-58
2022/07/06 02:43:31;;;;;;;6.57;1.40;;;15.30;99.90;;;;;;5077908;28;20258;-58
2022/07/06 02:45:59;;;;;;;3.40;1.20;;;15.40;99.90;;;;;;5041831;28;21402;-60
2022/07/06 02:48:29;;;;;;;2.23;1.40;;;15.40;99.90;;;;;;5062511;28;20227;-57
2022/07/06 02:50:58;;;;;;;3.53;1.60;;;15.40;99.90;;;;;;5043641;28;20873;-60
2022/07/06 02:53:27;;;;;;;3.93;1.60;;;15.30;99.90;;;;;;5044264;28;20321;-58
2022/07/06 02:55:56;;;;;;;3.80;1.40;;;15.40;99.90;;;;;;5041732;28;20719;-60
2022/07/06 02:58:24;;;;;;;2.87;1.70;;;15.30;99.90;;;;;;5043841;28;20242;-59
2022/07/06 03:00:55;;;;;;;4.23;1.40;;;15.40;99.90;;;;;;5076726;28;20227;-59
2022/07/06 03:03:23;;;;;;;5.80;1.83;;;15.30;99.90;;;;;;5043762;28;20560;-59
2022/07/06 03:05:51;;;;;;;4.40;1.53;;;15.30;99.90;;;;;;5043950;28;20232;-59
2022/07/06 03:08:20;;;;;;;3.20;1.40;;;15.30;99.90;;;;;;5043249;28;20261;-56
2022/07/06 03:10:49;;;;;;;5.33;1.80;;;15.30;99.90;;;;;;5043522;28;20704;-58
2022/07/06 03:13:18;;;;;;;3.93;1.70;;;15.30;99.90;;;;;;5044692;28;20308;-59
2022/07/06 03:15:46;;;;;;;5.33;1.60;;;15.30;99.90;;;;;;5041919;28;20346;-59
2022/07/06 03:18:17;;;;;;;4.47;1.63;;;15.30;99.90;;;;;;5044173;28;20837;-59
2022/07/06 03:20:45;;;;;;;2.93;1.50;;;15.30;99.90;;;;;;5044522;28;20231;-59
2022/07/06 03:23:16;;;;;;;5.20;1.60;;;15.30;99.90;;;;;;5044567;28;20335;-57
2022/07/06 03:25:45;;;;;;;4.60;1.60;;;15.30;99.90;;;;;;5042158;28;20606;-58
2022/07/06 03:28:13;;;;;;;3.37;1.20;;;15.30;99.90;;;;;;5045021;28;21286;-60
2022/07/06 03:30:41;;;;;;;5.17;1.33;;;15.30;99.90;;;;;;5043811;28;20235;-58
2022/07/06 03:33:09;;;;;;;4.20;1.30;;;15.30;99.90;;;;;;5043443;28;20255;-59
2022/07/06 03:35:39;;;;;;;5.50;1.30;;;15.30;99.90;;;;;;5042145;28;20236;-58
2022/07/06 03:38:08;;;;;;;4.53;1.30;;;15.30;99.90;;;;;;5047266;28;20703;-59
2022/07/06 03:40:39;;;;;;;2.27;1.20;;;15.30;99.90;;;;;;5044268;28;20228;-57
2022/07/06 03:43:07;;;;;;;2.63;1.37;;;15.40;99.90;;;;;;5046021;28;20307;-59
2022/07/06 03:45:37;;;;;;;3.90;1.33;;;15.30;99.90;;;;;;5047744;28;20243;-59
2022/07/06 03:48:06;;;;;;;3.33;1.20;;;15.40;99.90;;;;;;5056222;28;20228;-59
2022/07/06 03:50:38;;;;;;;5.53;1.20;;;15.40;99.90;;;;;;5053748;28;20228;-59
2022/07/06 03:53:07;;;;;;;3.17;1.20;;;15.40;99.90;;;;;;5073260;28;20259;-59
2022/07/06 03:55:36;;;;;;;3.30;1.10;;;15.40;99.90;;;;;;5049772;28;20219;-59
2022/07/06 03:58:08;;;;;;;4.90;1.50;;;15.40;99.90;;;;;;5068922;28;20258;-58
2022/07/06 04:00:39;;;;;;;3.27;1.30;;;15.40;99.90;;;;;;5053552;28;20715;-56
2022/07/06 04:03:12;;;;;;;8.20;1.80;;;15.40;99.90;;;;;;5054855;28;20230;-57
2022/07/06 04:05:47;;;;;;;3.75;1.30;;;15.40;99.90;;;;;;5049816;28;20250;-58
2022/07/06 04:08:15;;;;;;;3.20;1.30;;;15.40;99.90;;;;;;5052053;28;20239;-60
2022/07/06 04:10:50;;;;;;;3.67;1.23;;;15.40;99.90;;;;;;5067399;28;20518;-57
2022/07/06 04:13:19;;;;;;;3.77;1.30;;;15.40;99.90;;;;;;5067684;28;20231;-58
2022/07/06 04:15:47;;;;;;;6.90;1.77;;;15.40;99.90;;;;;;5051859;28;20306;-58
2022/07/06 04:18:15;;;;;;;5.63;1.60;;;15.40;99.90;;;;;;5054731;28;20576;-59
2022/07/06 04:20:50;;;;;;;4.73;1.83;;;15.40;99.90;;;;;;5051830;28;20232;-58
2022/07/06 04:23:19;;;;;;;3.33;1.30;;;15.40;99.90;;;;;;5045042;28;20255;-58
2022/07/06 04:25:47;;;;;;;3.07;1.50;;;15.40;99.90;;;;;;5039091;28;20734;-58
2022/07/06 04:28:16;;;;;;;4.37;1.57;;;15.40;99.90;;;;;;5044265;28;20831;-58
2022/07/06 04:30:44;;;;;;;4.30;1.27;;;15.50;99.90;;;;;;5043501;28;20227;-58
2022/07/06 04:33:17;;;;;;;5.20;1.57;;;15.50;99.90;;;;;;5043210;28;20286;-58
2022/07/06 04:35:46;;;;;;;5.03;1.47;;;15.50;99.90;;;;;;5038900;28;20234;-57
2022/07/06 04:38:16;;;;;;;3.83;1.43;;;15.50;99.90;;;;;;5042401;28;20281;-58
2022/07/06 04:40:46;;;;;;;6.17;1.43;;;15.50;99.90;;;;;;5042128;28;20642;-59
2022/07/06 04:43:17;;;;;;;5.40;1.53;;;15.60;99.90;;;;;;5050064;28;20271;-56
2022/07/06 04:45:45;;;;;;;4.23;1.43;;;15.60;99.90;;;;;;5063689;28;20293;-59
2022/07/06 04:48:14;;;;;;;3.67;1.40;;;15.60;99.90;;;;;;5069896;28;20236;-58
2022/07/06 04:50:42;;;;;;;3.97;1.10;;;15.60;99.90;;;;;;5049919;28;20753;-57
2022/07/06 04:53:18;;;;;;;3.77;1.60;;;15.60;99.90;;;;;;5044945;28;20230;-59
2022/07/06 04:55:47;;;;;;;3.63;1.10;;;15.60;99.90;;;;;;5041485;28;21008;-58
2022/07/06 04:58:16;;;;;;;2.77;1.20;;;15.60;99.90;;;;;;5045014;28;21258;-57
2022/07/06 05:00:44;;;;;;;2.20;1.17;;;15.60;99.90;;;;;;5040996;28;20242;-58
2022/07/06 05:03:12;;;;;;;3.27;1.10;;;15.70;99.90;;;;;;5059983;28;20812;-56
2022/07/06 05:05:40;;;;;;;2.67;1.13;;;15.70;99.90;;;;;;5041233;28;20231;-58
2022/07/06 05:08:09;;;;;;;4.43;1.10;;;15.70;99.90;;;;;;5042433;28;20372;-58
2022/07/06 05:10:38;;;;;;;5.30;1.27;;;15.70;99.90;;;;;;5043660;28;20239;-57
2022/07/06 05:13:06;;;;;;;3.43;1.07;;;15.70;99.90;;;;;;5043871;28;20228;-59
2022/07/06 05:15:35;;;;;;;5.77;1.27;;;15.70;99.90;;;;;;5072879;28;21265;-59
2022/07/06 05:18:03;;;;;;;4.23;1.30;;;15.70;99.90;;;;;;5041269;28;20675;-59
2022/07/06 05:20:32;;;;;;;2.53;1.03;;;15.80;99.90;;;;;;5041227;28;20564;-59
2022/07/06 05:23:01;;;;;;;4.90;1.00;;;15.80;99.90;;;;;;5044414;28;20234;-59
2022/07/06 05:25:32;;;;;;;4.27;0.90;;;15.80;99.90;;;;;;5039248;28;20231;-57
2022/07/06 05:28:02;;;;;;;3.00;1.37;;;15.90;99.90;;;;;;5040128;28;20289;-59
2022/07/06 05:30:31;;;;;;;3.13;0.90;;;15.90;99.90;;;;;;5042271;28;20243;-59
2022/07/06 05:33:00;;;;;;;7.20;1.50;;;15.90;99.90;;;;;;5045314;28;20220;-59
2022/07/06 05:35:28;;;;;;;3.37;1.00;;;15.90;99.90;;;;;;5041792;28;20707;-58
2022/07/06 05:38:17;;;;;;;4.43;1.30;;;16.00;99.90;;;;;;5043590;28;20635;-59
2022/07/06 05:40:45;;;;;;;2.27;1.07;;;16.10;99.90;;;;;;5041738;28;20234;-59
2022/07/06 05:43:15;;;;;;;3.17;1.00;;;16.10;99.90;;;;;;5043498;28;20700;-60
2022/07/06 05:45:43;;;;;;;4.10;1.10;;;16.20;99.90;;;;;;5040631;28;20239;-58
2022/07/06 05:50:58;;;;;;;5.43;1.20;;;16.10;99.90;;;;;;5060354;28;20789;-58
2022/07/06 05:53:26;;;;;;;4.63;1.37;;;16.10;99.90;;;;;;5044596;28;20246;-57
2022/07/06 05:55:57;;;;;;;4.67;1.10;;;16.20;99.90;;;;;;5047824;28;20252;-59
2022/07/06 05:58:28;;;;;;;3.17;1.20;;;16.30;99.90;;;;;;5050833;28;21568;-58
2022/07/06 06:00:59;;;;;;;4.63;1.37;;;16.30;99.90;;;;;;5047044;28;20223;-58
2022/07/06 06:03:27;;;;;;;2.43;1.00;;;16.40;99.90;;;;;;5048770;28;20325;-59
2022/07/06 06:05:55;;;;;;;4.10;1.10;;;16.50;99.90;;;;;;5047315;28;20234;-58
2022/07/06 06:08:25;;;;;;;3.40;1.00;;;16.50;99.90;;;;;;5050471;28;20232;-58
2022/07/06 06:10:54;;;;;;;5.23;1.20;;;16.50;99.90;;;;;;5049077;28;20222;-58
2022/07/06 06:13:24;;;;;;;5.33;1.13;;;16.60;99.90;;;;;;5048605;28;20246;-58
2022/07/06 06:15:54;;;;;;;4.40;1.37;;;16.60;99.90;;;;;;5046671;28;20232;-59
2022/07/06 06:18:22;;;;;;;3.47;1.10;;;16.70;99.90;;;;;;5067268;28;20230;-58
2022/07/06 06:20:51;;;;;;;2.00;1.00;;;16.70;99.90;;;;;;5048711;28;20228;-59
2022/07/06 06:23:19;;;;;;;4.87;1.03;;;16.80;99.90;;;;;;5050740;28;20646;-57
2022/07/06 06:25:47;;;;;;;3.27;0.87;;;16.80;99.90;;;;;;5047526;28;20623;-59
2022/07/06 06:28:15;;;;;;;3.57;1.20;;;16.90;99.90;;;;;;5051700;28;20262;-59
2022/07/06 06:30:43;;;;;;;3.03;1.10;;;16.90;99.90;;;;;;5051577;28;20219;-59
2022/07/06 06:33:14;;;;;;;3.23;1.10;;;17.00;99.90;;;;;;5053041;28;20262;-59
2022/07/06 06:35:44;;;;;;;3.50;1.00;;;17.00;99.90;;;;;;5045513;28;20234;-59
2022/07/06 06:38:13;;;;;;;4.13;1.20;;;17.10;99.90;;;;;;5055102;28;20230;-59
2022/07/06 06:40:42;;;;;;;2.23;0.80;;;17.10;99.90;;;;;;5050093;28;20315;-59
2022/07/06 06:43:10;;;;;;;2.20;1.00;;;17.20;99.90;;;;;;5049325;28;20223;-58
2022/07/06 06:45:46;;;;;;;3.93;1.00;;;17.30;99.90;;;;;;5047029;28;20916;-59
2022/07/06 06:48:17;;;;;;;2.93;1.00;;;17.30;99.90;;;;;;5051432;28;20235;-59
2022/07/06 06:50:45;;;;;;;2.93;0.97;;;17.40;99.90;;;;;;5049421;28;20224;-59
2022/07/06 06:53:13;;;;;;;3.20;1.13;;;17.50;99.90;;;;;;5050050;28;20713;-59
2022/07/06 06:55:42;;;;;;;4.60;1.13;;;17.60;99.90;;;;;;5047477;28;20231;-58
2022/07/06 06:58:10;;;;;;;4.53;1.20;;;17.70;99.90;;;;;;5050360;28;20845;-59
2022/07/06 07:00:38;;;;;;;3.50;0.80;;;17.70;99.90;;;;;;5049443;28;20314;-59
2022/07/06 07:03:06;;;;;;;2.57;1.10;;;17.80;99.90;;;;;;5049707;28;20220;-60
2022/07/06 07:05:35;;;;;;;2.90;1.10;;;17.90;99.90;;;;;;5045888;28;20235;-57
2022/07/06 07:08:04;;;;;;;3.20;1.00;;;17.90;99.90;;;;;;5050399;28;20228;-59
2022/07/06 07:10:33;;;;;;;5.43;1.10;;;18.00;99.90;;;;;;5052946;28;20232;-58
2022/07/06 07:13:01;;;;;;;3.20;1.00;;;18.00;99.90;;;;;;5051279;28;20221;-58
2022/07/06 07:15:29;;;;;;;6.87;1.10;;;18.10;99.90;;;;;;5046579;28;20234;-58
2022/07/06 07:17:57;;;;;;;2.67;0.90;;;18.20;99.90;;;;;;5048360;28;20222;-58
2022/07/06 07:20:26;;;;;;;3.40;0.80;;;18.30;99.90;;;;;;5048025;28;20229;-57
2022/07/06 07:22:55;;;;;;;2.70;0.60;;;18.40;99.90;;;;;;5053017;28;20234;-58
2022/07/06 07:25:23;;;;;;;4.97;1.00;;;18.60;99.90;;;;;;5052233;28;20260;-57
2022/07/06 07:27:51;;;;;;;3.47;0.90;;;18.70;99.90;;;;;;5052080;28;20241;-58
2022/07/06 07:30:20;;;;;;;2.73;0.80;;;18.60;99.90;;;;;;5054163;28;20252;-59
2022/07/06 07:32:48;;;;;;;3.73;0.83;;;18.70;99.90;;;;;;5053185;28;20364;-58
2022/07/06 07:35:16;;;;;;;1.77;0.70;;;18.90;99.90;;;;;;5052395;28;20241;-58
2022/07/06 07:37:44;;;;;;;4.60;0.80;;;19.00;99.90;;;;;;5051404;28;20238;-58
2022/07/06 07:40:14;;;;;;;4.03;1.07;;;19.00;99.90;;;;;;5052695;28;20235;-57
2022/07/06 07:42:43;;;;;;;1.40;0.77;;;19.10;99.90;;;;;;5049548;28;20237;-57
2022/07/06 07:45:11;;;;;;;3.60;1.10;;;19.40;99.90;;;;;;5046406;28;20265;-56
2022/07/06 07:47:40;;;;;;;4.30;1.07;;;19.30;99.90;;;;;;5047049;28;20234;-56
2022/07/06 07:50:09;;;;;;;1.83;0.77;;;19.20;99.90;;;;;;5051847;28;20312;-58
2022/07/06 07:52:38;;;;;;;2.73;0.80;;;18.90;99.90;;;;;;5052271;28;20709;-57
2022/07/06 07:55:07;;;;;;;3.77;0.60;;;18.70;99.90;;;;;;5051984;28;20230;-58
2022/07/06 07:57:57;;;;;;;3.97;0.90;;;18.40;99.90;;;;;;5054599;28;20318;-58
2022/07/06 08:00:26;;;;;;;3.37;0.77;;;18.40;99.90;;;;;;5050050;28;21020;-59
2022/07/06 08:02:55;;;;;;;3.40;0.90;;;18.40;99.90;;;;;;5050070;28;20365;-59
2022/07/06 08:05:23;;;;;;;2.73;0.60;;;18.30;99.90;;;;;;5048254;28;20235;-59
2022/07/06 08:07:51;;;;;;;2.73;0.60;;;18.20;99.90;;;;;;5045683;28;20217;-59
2022/07/06 08:10:20;;;;;;;2.80;0.90;;;17.90;99.90;;;;;;5048900;28;20254;-58
2022/07/06 08:12:48;;;;;;;3.33;0.90;;;17.60;99.90;;;;;;5048486;28;20242;-58
2022/07/06 08:15:18;;;;;;;2.50;0.50;;;17.40;99.90;;;;;;5049813;28;20733;-58
2022/07/06 08:17:46;;;;;;;2.33;0.70;;;17.10;99.90;;;;;;5048857;28;20623;-58
2022/07/06 08:20:15;;;;;;;3.60;0.73;;;16.80;99.90;;;;;;5054937;28;20990;-59
2022/07/06 08:22:43;;;;;;;3.27;0.80;;;16.70;99.90;;;;;;5053316;28;20472;-60
2022/07/06 08:25:12;;;;;;;1.93;0.70;;;16.60;99.90;;;;;;5048619;28;20237;-55
2022/07/06 08:27:40;;;;;;;3.67;0.93;;;16.50;99.90;;;;;;5047777;28;20223;-57
2022/07/06 08:30:12;;;;;;;1.53;0.67;;;16.50;99.90;;;;;;5049602;28;20719;-58
2022/07/06 08:32:43;;;;;;;2.57;0.90;;;16.50;99.90;;;;;;5046847;28;21377;-55
2022/07/06 08:35:31;;;;;;;3.10;0.60;;;16.60;99.90;;;;;;5048078;28;20802;-58
2022/07/06 08:38:00;;;;;;;2.93;0.80;;;16.60;99.90;;;;;;5047228;28;20243;-58
2022/07/06 08:40:34;;;;;;;4.10;1.00;;;16.60;99.90;;;;;;5046953;28;20244;-58
2022/07/06 08:43:07;;;;;;;2.97;0.70;;;16.50;99.90;;;;;;5047264;28;20229;-57
2022/07/06 08:45:36;;;;;;;3.13;0.90;;;16.30;99.90;;;;;;5047354;28;20251;-58
2022/07/06 08:48:07;;;;;;;3.43;1.00;;;16.40;99.90;;;;;;5054568;28;20238;-60
2022/07/06 08:50:35;;;;;;;2.67;0.90;;;16.40;99.90;;;;;;5052131;28;20318;-59
2022/07/06 08:53:04;;;;;;;2.00;0.70;;;16.40;99.90;;;;;;5057106;28;20717;-59
2022/07/06 08:55:35;;;;;;;1.23;0.80;;;16.30;99.90;;;;;;5051794;28;20236;-56
2022/07/06 08:58:06;;;;;;;4.10;0.93;;;16.50;99.90;;;;;;5054721;28;20719;-60
2022/07/06 09:00:35;;;;;;;2.47;0.83;;;16.70;99.90;;;;;;5051526;28;20565;-61
2022/07/06 09:03:03;;;;;;;2.63;0.93;;;16.90;99.90;;;;;;5052522;28;20221;-59
2022/07/06 09:05:35;;;;;;;2.33;0.83;;;17.10;99.90;;;;;;5046419;28;20247;-55
2022/07/06 09:08:04;;;;;;;4.23;0.83;;;17.30;99.90;;;;;;5055213;28;20239;-61
2022/07/06 09:10:32;;;;;;;3.83;1.23;;;17.50;99.90;;;;;;5058487;28;20687;-62
2022/07/06 09:13:05;;;;;;;3.90;1.80;;;17.70;99.90;;;;;;5067870;28;20250;-60
2022/07/06 09:15:33;;;;;;;3.67;1.50;;;17.80;99.90;;;;;;5063856;28;20587;-62
2022/07/06 09:18:02;;;;;;;3.40;1.37;;;17.90;99.90;;;;;;5064788;28;20227;-59
2022/07/06 09:20:31;;;;;;;2.37;1.10;;;18.10;99.90;;;;;;5065867;28;20238;-58
2022/07/06 09:23:02;;;;;;;3.00;1.20;;;18.40;99.90;;;;;;5059551;28;20627;-58
2022/07/06 09:25:31;;;;;;;2.33;0.60;;;18.60;99.90;;;;;;5061205;28;20268;-59
2022/07/06 09:28:00;;;;;;;2.33;0.80;;;18.90;99.90;;;;;;5062120;28;20258;-60
2022/07/06 09:30:29;;;;;;;1.77;0.83;;;19.10;99.90;;;;;;5054023;28;20598;-60
2022/07/06 09:32:59;;;;;;;1.97;0.70;;;19.40;99.90;;;;;;5053937;28;20724;-58
2022/07/06 09:35:29;;;;;;;2.47;0.70;;;19.50;99.90;;;;;;5048982;28;20308;-58
2022/07/06 09:38:04;;;;;;;2.50;0.77;;;19.60;99.90;;;;;;5054024;28;20747;-59
2022/07/06 09:40:34;;;;;;;3.07;0.80;;;19.90;99.90;;;;;;5051374;28;20704;-60
2022/07/06 09:43:09;;;;;;;2.50;0.83;;;20.30;99.90;;;;;;5053687;28;20236;-58
2022/07/06 09:45:40;;;;;;;2.17;0.70;;;20.60;99.90;;;;;;5048281;28;21281;-59
2022/07/06 09:48:10;;;;;;;1.57;0.73;;;20.60;99.90;;;;;;5051216;28;20292;-60
2022/07/06 09:50:44;;;;;;;2.17;1.00;;;20.60;99.90;;;;;;5052582;28;20231;-58
2022/07/06 09:53:14;;;;;;;2.27;0.90;;;20.50;99.90;;;;;;5051429;28;20749;-59
2022/07/06 09:55:45;;;;;;;2.23;0.90;;;20.40;99.90;;;;;;5047886;28;21052;-55
2022/07/06 09:58:14;;;;;;;3.77;0.87;;;20.30;99.90;;;;;;5050862;28;20843;-56
2022/07/06 10:00:43;;;;;;;4.83;0.90;;;20.10;99.90;;;;;;5054543;28;20270;-56
2022/07/06 10:03:12;;;;;;;1.70;0.57;;;20.00;99.90;;;;;;5051830;28;20748;-58
2022/07/06 10:05:41;;;;;;;1.00;0.60;;;19.70;99.90;;;;;;5048383;28;20654;-56
2022/07/06 10:08:10;;;;;;;2.37;0.83;;;19.60;99.90;;;;;;5050938;28;20592;-59
2022/07/06 10:10:42;;;;;;;2.70;0.57;;;19.60;99.90;;;;;;5052525;28;20296;-58
2022/07/06 10:13:11;;;;;;;1.90;0.50;;;19.40;99.90;;;;;;5052711;28;20719;-56
2022/07/06 10:15:40;;;;;;;3.57;0.93;;;19.40;99.90;;;;;;5045947;28;20233;-60
2022/07/06 10:18:10;;;;;;;2.37;0.50;;;19.40;99.90;;;;;;5053892;28;20244;-57
2022/07/06 10:20:40;;;;;;;4.97;1.00;;;19.50;99.90;;;;;;5051960;28;20315;-57
2022/07/06 10:23:10;;;;;;;1.93;0.60;;;19.50;99.90;;;;;;5052157;28;20238;-58
2022/07/06 10:25:40;;;;;;;3.23;0.70;;;19.80;99.90;;;;;;5050409;28;20240;-61
2022/07/06 10:28:14;;;;;;;3.67;0.67;;;20.00;99.90;;;;;;5051280;28;20262;-59
2022/07/06 10:30:44;;;;;;;1.83;0.60;;;20.20;99.90;;;;;;5051245;28;20238;-59
2022/07/06 10:33:15;;;;;;;5.93;1.00;;;20.20;99.90;;;;;;5053200;28;20226;-60
2022/07/06 10:35:44;;;;;;;1.80;0.60;;;20.40;99.90;;;;;;5053033;28;20254;-59
2022/07/06 10:38:12;;;;;;;2.10;0.60;;;20.90;99.90;;;;;;5055877;28;20768;-59
2022/07/06 10:43:36;;;;;;;1.97;0.60;;;23.10;99.90;;;;;;5051796;28;20240;-58
2022/07/06 10:46:09;;;;;;;2.73;0.70;;;23.50;99.90;;;;;;5049354;28;20281;-59
2022/07/06 10:48:38;;;;;;;3.20;0.70;;;22.90;99.90;;;;;;5050483;28;20706;-60
2022/07/06 10:51:07;;;;;;;2.60;0.60;;;22.00;99.90;;;;;;5051140;28;20695;-58
2022/07/06 10:53:37;;;;;;;2.33;0.70;;;21.30;99.90;;;;;;5050382;28;20306;-60
2022/07/06 10:56:09;;;;;;;2.90;0.80;;;20.40;99.90;;;;;;5049527;28;20734;-58
2022/07/06 10:58:43;;;;;;;3.30;0.70;;;19.80;99.90;;;;;;5052005;28;20266;-59
2022/07/06 11:01:12;;;;;;;2.70;1.00;;;19.70;99.90;;;;;;5051860;28;20349;-58
2022/07/06 11:03:43;;;;;;;2.67;0.80;;;19.70;99.90;;;;;;5053104;28;20362;-59
2022/07/06 11:06:15;;;;;;;3.77;0.80;;;19.90;99.90;;;;;;5050893;28;20369;-58
2022/07/06 11:08:45;;;;;;;6.37;0.90;;;20.40;99.90;;;;;;5049385;28;20228;-58
2022/07/06 11:11:17;;;;;;;2.77;0.70;;;21.30;99.90;;;;;;5051807;28;20710;-57
2022/07/06 11:13:50;;;;;;;3.80;0.83;;;22.20;99.90;;;;;;5052007;28;20574;-58
2022/07/06 11:16:19;;;;;;;3.00;0.80;;;22.60;99.90;;;;;;5049281;28;20297;-57
2022/07/06 11:18:49;;;;;;;2.30;0.60;;;22.50;99.90;;;;;;5053899;28;20232;-59
2022/07/06 11:21:22;;;;;;;3.30;0.80;;;23.00;99.90;;;;;;5054138;28;20233;-58
2022/07/06 11:23:52;;;;;;;2.57;0.60;;;23.10;99.90;;;;;;5053710;28;20228;-58
2022/07/06 11:26:23;;;;;;;2.50;0.60;;;22.50;99.90;;;;;;5052713;28;20317;-58
2022/07/06 11:28:52;;;;;;;2.43;0.47;;;21.80;99.90;;;;;;5052052;28;20321;-57
2022/07/06 11:31:20;;;;;;;2.63;0.67;;;21.70;99.90;;;;;;5054267;28;20239;-57
2022/07/06 11:33:49;;;;;;;2.47;0.70;;;21.60;99.90;;;;;;5053591;28;20226;-59
2022/07/06 11:36:19;;;;;;;2.67;0.70;;;21.70;99.90;;;;;;5051115;28;20242;-59
2022/07/06 11:38:48;;;;;;;2.20;0.80;;;22.30;99.90;;;;;;5050077;28;20238;-58
2022/07/06 11:41:18;;;;;;;3.47;0.60;;;22.40;99.90;;;;;;5041689;28;20233;-57
2022/07/06 11:43:51;;;;;;;1.83;0.60;;;22.80;99.90;;;;;;5039041;28;20224;-58
2022/07/06 11:46:24;;;;;;;1.67;0.50;;;23.60;99.90;;;;;;5038723;28;20256;-58
2022/07/06 11:48:53;;;;;;;4.20;0.70;;;24.40;99.90;;;;;;5041999;28;20248;-57
2022/07/06 11:51:22;;;;;;;1.87;0.70;;;24.80;99.90;;;;;;5044103;28;20698;-57
2022/07/06 11:53:54;;;;;;;2.90;0.50;;;25.30;99.90;;;;;;5039655;28;20277;-57
2022/07/06 11:56:26;;;;;;;3.37;0.60;;;25.70;99.90;;;;;;5038448;28;20623;-57
2022/07/06 11:58:59;;;;;;;1.40;0.50;;;24.80;99.90;;;;;;5039831;28;20236;-57
2022/07/06 12:01:28;;;;;;;2.57;0.80;;;23.90;99.90;;;;;;5038762;28;20724;-58
2022/07/06 12:04:00;;;;;;;2.37;0.43;;;23.20;99.90;;;;;;5040376;28;21090;-58
2022/07/06 12:06:29;;;;;;;2.43;0.60;;;22.80;99.90;;;;;;5038564;28;20239;-58
2022/07/06 12:08:58;;;;;;;1.47;0.40;;;22.80;99.90;;;;;;5038058;28;20321;-58
2022/07/06 12:11:29;;;;;;;2.27;0.40;;;23.20;99.90;;;;;;5043696;28;20577;-59
2022/07/06 12:14:01;;;;;;;2.43;0.50;;;23.00;99.90;;;;;;5049669;28;20477;-59
2022/07/06 12:16:35;;;;;;;2.47;0.60;;;22.50;99.90;;;;;;5047948;28;20264;-58
2022/07/06 12:19:05;;;;;;;1.63;0.30;;;22.10;99.90;;;;;;5049328;28;20236;-58
2022/07/06 12:21:35;;;;;;;1.63;0.33;;;21.70;99.90;;;;;;5051464;28;20754;-58
2022/07/06 12:24:08;;;;;;;0.93;0.40;;;21.60;99.90;;;;;;5052735;28;20288;-58
2022/07/06 12:26:41;;;;;;;1.80;0.40;;;21.60;99.90;;;;;;5051134;28;20277;-59
2022/07/06 12:29:13;;;;;;;0.60;0.40;;;21.30;99.90;;;;;;5050759;28;20637;-58
2022/07/06 12:31:43;;;;;;;3.07;0.50;;;21.10;99.90;;;;;;5050735;28;20264;-58
2022/07/06 12:34:15;;;;;;;0.93;0.30;;;21.10;99.90;;;;;;5048146;28;20236;-58
2022/07/06 12:36:45;;;;;;;0.47;0.30;;;21.20;99.90;;;;;;5047765;28;20235;-58
2022/07/06 12:39:15;;;;;;;2.23;0.50;;;21.20;99.90;;;;;;5051416;28;20223;-59
2022/07/06 12:41:48;;;;;;;2.53;0.53;;;21.10;99.90;;;;;;5047985;28;20669;-58
2022/07/06 12:44:19;;;;;;;0.70;0.40;;;21.00;99.90;;;;;;5046560;28;20223;-59
2022/07/06 12:46:48;;;;;;;2.63;0.67;;;20.90;99.90;;;;;;5052277;28;20246;-59
2022/07/06 12:49:22;;;;;;;1.63;0.40;;;21.10;99.90;;;;;;5048166;28;20224;-59
2022/07/06 12:51:55;;;;;;;1.93;0.40;;;21.50;99.90;;;;;;5049951;28;20239;-58
2022/07/06 12:54:25;;;;;;;2.03;0.50;;;21.90;99.90;;;;;;5048319;28;20671;-60
2022/07/06 12:57:14;;;;;;;2.53;0.40;;;22.10;99.90;;;;;;5046000;28;20323;-57
2022/07/06 12:59:49;;;;;;;1.87;0.50;;;22.30;99.90;;;;;;5049535;28;20239;-58
2022/07/06 13:02:22;;;;;;;1.50;0.47;;;22.20;99.90;;;;;;5048068;28;20231;-56
2022/07/06 13:05:12;;;;;;;2.57;0.97;;;21.90;99.90;;;;;;5047010;28;20233;-58
2022/07/06 13:07:46;;;;;;;1.07;0.43;;;22.10;99.90;;;;;;5048899;28;20752;-58
2022/07/06 13:10:15;;;;;;;1.90;0.37;;;22.10;99.90;;;;;;5049591;28;20656;-59